sensor_id;sensor_type;location;lat;lon;timestamp;P1;durP1;ratioP1;P2;durP2;ratioP2
8716;SDS011;4395;48.554;8.820;2023-12-14T00:00:32;1.38;;;1.27;;
8716;SDS011;4395;48.554;8.820;2023-12-14T00:02:36;2.30;;;1.50;;
8716;SDS011;4395;48.554;8.820;2023-12-14T00:04:40;2.75;;;1.58;;
8716;SDS011;4395;48.554;8.820;2023-12-14T00:06:43;2.00;;;1.52;;
8716;SDS011;4395;48.554;8.820;2023-12-14T00:08:45;1.35;;;1.25;;
8716;SDS011;4395;48.554;8.820;2023-12-14T00:10:48;1.30;;;1.20;;
8716;SDS011;4395;48.554;8.820;2023-12-14T00:12:51;1.05;;;1.05;;
8716;SDS011;4395;48.554;8.820;2023-12-14T00:14:56;3.10;;;1.70;;
8716;SDS011;4395;48.554;8.820;2023-12-14T00:16:59;1.52;;;1.42;;
8716;SDS011;4395;48.554;8.820;2023-12-14T00:19:03;2.17;;;1.98;;
8716;SDS011;4395;48.554;8.820;2023-12-14T00:21:06;2.67;;;2.33;;
8716;SDS011;4395;48.554;8.820;2023-12-14T00:23:09;5.18;;;2.85;;
8716;SDS011;4395;48.554;8.820;2023-12-14T00:25:11;2.25;;;2.05;;
8716;SDS011;4395;48.554;8.820;2023-12-14T00:27:14;1.85;;;1.70;;
8716;SDS011;4395;48.554;8.820;2023-12-14T00:29:16;1.60;;;1.50;;
8716;SDS011;4395;48.554;8.820;2023-12-14T00:31:18;3.00;;;1.65;;
8716;SDS011;4395;48.554;8.820;2023-12-14T00:33:20;1.63;;;1.52;;
8716;SDS011;4395;48.554;8.820;2023-12-14T00:35:25;1.85;;;1.70;;
8716;SDS011;4395;48.554;8.820;2023-12-14T00:37:28;3.50;;;2.70;;
8716;SDS011;4395;48.554;8.820;2023-12-14T00:39:31;2.90;;;2.60;;
8716;SDS011;4395;48.554;8.820;2023-12-14T00:41:33;1.92;;;1.50;;
8716;SDS011;4395;48.554;8.820;2023-12-14T00:43:36;3.20;;;2.17;;
8716;SDS011;4395;48.554;8.820;2023-12-14T00:45:39;3.25;;;2.75;;
8716;SDS011;4395;48.554;8.820;2023-12-14T00:47:43;4.55;;;3.95;;
8716;SDS011;4395;48.554;8.820;2023-12-14T00:49:46;2.97;;;2.67;;
8716;SDS011;4395;48.554;8.820;2023-12-14T00:51:50;2.95;;;2.55;;
8716;SDS011;4395;48.554;8.820;2023-12-14T00:53:53;2.22;;;2.03;;
8716;SDS011;4395;48.554;8.820;2023-12-14T00:55:55;3.88;;;1.92;;
8716;SDS011;4395;48.554;8.820;2023-12-14T00:57:58;1.95;;;1.80;;
8716;SDS011;4395;48.554;8.820;2023-12-14T01:00:00;2.42;;;2.08;;
8716;SDS011;4395;48.554;8.820;2023-12-14T01:02:03;3.58;;;2.60;;
8716;SDS011;4395;48.554;8.820;2023-12-14T01:04:06;10.15;;;5.22;;
8716;SDS011;4395;48.554;8.820;2023-12-14T01:06:09;11.30;;;7.15;;
8716;SDS011;4395;48.554;8.820;2023-12-14T01:08:13;9.65;;;6.20;;
8716;SDS011;4395;48.554;8.820;2023-12-14T01:10:16;7.32;;;4.95;;
8716;SDS011;4395;48.554;8.820;2023-12-14T01:12:19;2.80;;;2.30;;
8716;SDS011;4395;48.554;8.820;2023-12-14T01:14:22;3.88;;;3.03;;
8716;SDS011;4395;48.554;8.820;2023-12-14T01:16:25;2.88;;;2.33;;
8716;SDS011;4395;48.554;8.820;2023-12-14T01:18:28;6.55;;;3.75;;
8716;SDS011;4395;48.554;8.820;2023-12-14T01:20:31;7.43;;;4.45;;
8716;SDS011;4395;48.554;8.820;2023-12-14T01:22:35;9.60;;;6.07;;
8716;SDS011;4395;48.554;8.820;2023-12-14T01:24:40;19.92;;;10.18;;
8716;SDS011;4395;48.554;8.820;2023-12-14T01:26:43;21.35;;;9.95;;
8716;SDS011;4395;48.554;8.820;2023-12-14T01:28:45;15.05;;;7.53;;
8716;SDS011;4395;48.554;8.820;2023-12-14T01:30:48;4.28;;;3.40;;
8716;SDS011;4395;48.554;8.820;2023-12-14T01:32:51;3.10;;;2.20;;
8716;SDS011;4395;48.554;8.820;2023-12-14T01:34:54;4.05;;;2.92;;
8716;SDS011;4395;48.554;8.820;2023-12-14T01:36:57;3.50;;;2.50;;
8716;SDS011;4395;48.554;8.820;2023-12-14T01:38:59;2.30;;;2.10;;
8716;SDS011;4395;48.554;8.820;2023-12-14T01:41:03;2.40;;;2.15;;
8716;SDS011;4395;48.554;8.820;2023-12-14T01:43:07;2.30;;;2.08;;
8716;SDS011;4395;48.554;8.820;2023-12-14T01:45:09;2.03;;;1.67;;
8716;SDS011;4395;48.554;8.820;2023-12-14T01:47:14;2.00;;;1.80;;
8716;SDS011;4395;48.554;8.820;2023-12-14T01:49:18;2.30;;;2.10;;
8716;SDS011;4395;48.554;8.820;2023-12-14T01:51:22;2.75;;;1.83;;
8716;SDS011;4395;48.554;8.820;2023-12-14T01:53:25;2.88;;;2.53;;
8716;SDS011;4395;48.554;8.820;2023-12-14T01:55:28;2.80;;;2.60;;
8716;SDS011;4395;48.554;8.820;2023-12-14T01:57:32;3.40;;;2.70;;
8716;SDS011;4395;48.554;8.820;2023-12-14T01:59:35;2.38;;;2.17;;
8716;SDS011;4395;48.554;8.820;2023-12-14T02:01:38;3.20;;;2.55;;
8716;SDS011;4395;48.554;8.820;2023-12-14T02:03:44;3.70;;;2.40;;
8716;SDS011;4395;48.554;8.820;2023-12-14T02:05:47;3.25;;;2.60;;
8716;SDS011;4395;48.554;8.820;2023-12-14T02:07:50;2.50;;;1.95;;
8716;SDS011;4395;48.554;8.820;2023-12-14T02:09:53;4.00;;;2.03;;
8716;SDS011;4395;48.554;8.820;2023-12-14T02:11:55;2.60;;;2.40;;
8716;SDS011;4395;48.554;8.820;2023-12-14T02:14:02;3.28;;;2.72;;
8716;SDS011;4395;48.554;8.820;2023-12-14T02:16:06;3.03;;;2.60;;
8716;SDS011;4395;48.554;8.820;2023-12-14T02:18:09;4.40;;;3.05;;
8716;SDS011;4395;48.554;8.820;2023-12-14T02:20:12;3.78;;;3.28;;
8716;SDS011;4395;48.554;8.820;2023-12-14T02:22:16;6.43;;;4.18;;
8716;SDS011;4395;48.554;8.820;2023-12-14T02:24:20;3.80;;;3.40;;
8716;SDS011;4395;48.554;8.820;2023-12-14T02:26:23;4.78;;;3.22;;
8716;SDS011;4395;48.554;8.820;2023-12-14T02:28:26;3.60;;;3.30;;
8716;SDS011;4395;48.554;8.820;2023-12-14T02:30:29;4.65;;;3.75;;
8716;SDS011;4395;48.554;8.820;2023-12-14T02:32:32;3.58;;;3.28;;
8716;SDS011;4395;48.554;8.820;2023-12-14T02:34:35;5.85;;;3.63;;
8716;SDS011;4395;48.554;8.820;2023-12-14T02:36:38;4.63;;;3.30;;
8716;SDS011;4395;48.554;8.820;2023-12-14T02:38:40;3.90;;;3.60;;
8716;SDS011;4395;48.554;8.820;2023-12-14T02:40:44;4.68;;;3.78;;
8716;SDS011;4395;48.554;8.820;2023-12-14T02:42:47;4.30;;;3.90;;
8716;SDS011;4395;48.554;8.820;2023-12-14T02:44:49;4.50;;;3.70;;
8716;SDS011;4395;48.554;8.820;2023-12-14T02:46:52;4.18;;;3.78;;
8716;SDS011;4395;48.554;8.820;2023-12-14T02:48:55;5.78;;;4.78;;
8716;SDS011;4395;48.554;8.820;2023-12-14T02:50:58;5.25;;;4.75;;
8716;SDS011;4395;48.554;8.820;2023-12-14T02:53:02;5.18;;;4.68;;
8716;SDS011;4395;48.554;8.820;2023-12-14T02:55:05;5.03;;;4.53;;
8716;SDS011;4395;48.554;8.820;2023-12-14T02:57:09;4.57;;;4.18;;
8716;SDS011;4395;48.554;8.820;2023-12-14T02:59:12;5.03;;;4.55;;
8716;SDS011;4395;48.554;8.820;2023-12-14T03:01:15;6.43;;;4.93;;
8716;SDS011;4395;48.554;8.820;2023-12-14T03:03:18;5.70;;;5.10;;
8716;SDS011;4395;48.554;8.820;2023-12-14T03:05:21;5.32;;;4.82;;
8716;SDS011;4395;48.554;8.820;2023-12-14T03:07:24;5.53;;;5.00;;
8716;SDS011;4395;48.554;8.820;2023-12-14T03:09:25;6.65;;;5.10;;
8716;SDS011;4395;48.554;8.820;2023-12-14T03:11:28;5.32;;;4.63;;
8716;SDS011;4395;48.554;8.820;2023-12-14T03:13:32;5.57;;;4.80;;
8716;SDS011;4395;48.554;8.820;2023-12-14T03:15:35;5.10;;;4.60;;
8716;SDS011;4395;48.554;8.820;2023-12-14T03:17:39;5.10;;;4.20;;
8716;SDS011;4395;48.554;8.820;2023-12-14T03:19:42;4.68;;;4.20;;
8716;SDS011;4395;48.554;8.820;2023-12-14T03:21:45;4.57;;;3.83;;
8716;SDS011;4395;48.554;8.820;2023-12-14T03:23:46;4.50;;;4.10;;
8716;SDS011;4395;48.554;8.820;2023-12-14T03:25:49;4.30;;;3.90;;
8716;SDS011;4395;48.554;8.820;2023-12-14T03:27:52;4.63;;;4.10;;
8716;SDS011;4395;48.554;8.820;2023-12-14T03:29:56;4.07;;;3.67;;
8716;SDS011;4395;48.554;8.820;2023-12-14T03:31:59;4.93;;;3.67;;
8716;SDS011;4395;48.554;8.820;2023-12-14T03:34:01;5.13;;;4.03;;
8716;SDS011;4395;48.554;8.820;2023-12-14T03:36:05;4.53;;;3.70;;
8716;SDS011;4395;48.554;8.820;2023-12-14T03:38:08;4.28;;;3.85;;
8716;SDS011;4395;48.554;8.820;2023-12-14T03:40:11;4.60;;;4.20;;
8716;SDS011;4395;48.554;8.820;2023-12-14T03:42:14;5.95;;;3.50;;
8716;SDS011;4395;48.554;8.820;2023-12-14T03:44:17;3.75;;;3.42;;
8716;SDS011;4395;48.554;8.820;2023-12-14T03:46:21;5.18;;;3.50;;
8716;SDS011;4395;48.554;8.820;2023-12-14T03:48:24;4.18;;;3.80;;
8716;SDS011;4395;48.554;8.820;2023-12-14T03:50:27;4.70;;;4.03;;
8716;SDS011;4395;48.554;8.820;2023-12-14T03:52:30;4.70;;;4.20;;
8716;SDS011;4395;48.554;8.820;2023-12-14T03:54:33;4.05;;;3.65;;
8716;SDS011;4395;48.554;8.820;2023-12-14T03:56:36;3.95;;;3.65;;
8716;SDS011;4395;48.554;8.820;2023-12-14T03:58:38;4.32;;;3.92;;
8716;SDS011;4395;48.554;8.820;2023-12-14T04:00:41;4.70;;;4.30;;
8716;SDS011;4395;48.554;8.820;2023-12-14T04:02:45;6.75;;;4.10;;
8716;SDS011;4395;48.554;8.820;2023-12-14T04:04:48;4.47;;;4.07;;
8716;SDS011;4395;48.554;8.820;2023-12-14T04:06:51;4.75;;;3.80;;
8716;SDS011;4395;48.554;8.820;2023-12-14T04:08:54;4.60;;;4.15;;
8716;SDS011;4395;48.554;8.820;2023-12-14T04:10:57;4.50;;;3.80;;
8716;SDS011;4395;48.554;8.820;2023-12-14T04:13:00;4.28;;;3.90;;
8716;SDS011;4395;48.554;8.820;2023-12-14T04:15:03;3.42;;;3.13;;
8716;SDS011;4395;48.554;8.820;2023-12-14T04:17:07;3.88;;;3.47;;
8716;SDS011;4395;48.554;8.820;2023-12-14T04:19:11;3.60;;;3.30;;
8716;SDS011;4395;48.554;8.820;2023-12-14T04:21:14;4.45;;;3.80;;
8716;SDS011;4395;48.554;8.820;2023-12-14T04:23:17;3.30;;;3.00;;
8716;SDS011;4395;48.554;8.820;2023-12-14T04:25:20;3.40;;;3.10;;
8716;SDS011;4395;48.554;8.820;2023-12-14T04:27:23;4.40;;;2.90;;
8716;SDS011;4395;48.554;8.820;2023-12-14T04:29:30;3.00;;;2.75;;
8716;SDS011;4395;48.554;8.820;2023-12-14T04:31:34;3.25;;;2.85;;
8716;SDS011;4395;48.554;8.820;2023-12-14T04:33:36;3.42;;;2.70;;
8716;SDS011;4395;48.554;8.820;2023-12-14T04:35:40;2.72;;;2.53;;
8716;SDS011;4395;48.554;8.820;2023-12-14T04:37:43;3.45;;;3.15;;
8716;SDS011;4395;48.554;8.820;2023-12-14T04:39:46;6.07;;;5.57;;
8716;SDS011;4395;48.554;8.820;2023-12-14T04:41:48;3.25;;;2.90;;
8716;SDS011;4395;48.554;8.820;2023-12-14T04:43:51;2.70;;;2.50;;
8716;SDS011;4395;48.554;8.820;2023-12-14T04:45:54;2.63;;;2.42;;
8716;SDS011;4395;48.554;8.820;2023-12-14T04:47:57;2.80;;;2.60;;
8716;SDS011;4395;48.554;8.820;2023-12-14T04:50:00;3.13;;;2.92;;
8716;SDS011;4395;48.554;8.820;2023-12-14T04:52:05;5.32;;;4.82;;
8716;SDS011;4395;48.554;8.820;2023-12-14T04:54:08;9.10;;;7.82;;
8716;SDS011;4395;48.554;8.820;2023-12-14T04:56:11;22.70;;;14.25;;
8716;SDS011;4395;48.554;8.820;2023-12-14T04:58:14;15.55;;;9.95;;
8716;SDS011;4395;48.554;8.820;2023-12-14T05:00:17;10.75;;;8.20;;
8716;SDS011;4395;48.554;8.820;2023-12-14T05:02:20;21.55;;;14.02;;
8716;SDS011;4395;48.554;8.820;2023-12-14T05:04:21;18.17;;;10.75;;
8716;SDS011;4395;48.554;8.820;2023-12-14T05:06:24;24.95;;;13.05;;
8716;SDS011;4395;48.554;8.820;2023-12-14T05:08:31;21.02;;;11.18;;
8716;SDS011;4395;48.554;8.820;2023-12-14T05:10:34;16.85;;;9.23;;
8716;SDS011;4395;48.554;8.820;2023-12-14T05:12:37;25.67;;;12.40;;
8716;SDS011;4395;48.554;8.820;2023-12-14T05:14:41;15.10;;;8.68;;
8716;SDS011;4395;48.554;8.820;2023-12-14T05:16:43;6.22;;;3.53;;
8716;SDS011;4395;48.554;8.820;2023-12-14T05:18:46;7.32;;;4.47;;
8716;SDS011;4395;48.554;8.820;2023-12-14T05:20:50;8.65;;;4.43;;
8716;SDS011;4395;48.554;8.820;2023-12-14T05:22:53;31.00;;;15.40;;
8716;SDS011;4395;48.554;8.820;2023-12-14T05:24:57;26.17;;;12.95;;
8716;SDS011;4395;48.554;8.820;2023-12-14T05:27:00;18.98;;;11.13;;
8716;SDS011;4395;48.554;8.820;2023-12-14T05:29:02;5.60;;;3.35;;
8716;SDS011;4395;48.554;8.820;2023-12-14T05:31:05;3.88;;;2.72;;
8716;SDS011;4395;48.554;8.820;2023-12-14T05:33:08;3.15;;;2.85;;
8716;SDS011;4395;48.554;8.820;2023-12-14T05:35:13;2.15;;;2.00;;
8716;SDS011;4395;48.554;8.820;2023-12-14T05:37:16;2.00;;;1.80;;
8716;SDS011;4395;48.554;8.820;2023-12-14T05:39:19;3.08;;;2.20;;
8716;SDS011;4395;48.554;8.820;2023-12-14T05:41:22;2.30;;;2.10;;
8716;SDS011;4395;48.554;8.820;2023-12-14T05:43:25;1.95;;;1.58;;
8716;SDS011;4395;48.554;8.820;2023-12-14T05:45:28;2.80;;;2.20;;
8716;SDS011;4395;48.554;8.820;2023-12-14T05:47:32;6.13;;;5.32;;
8716;SDS011;4395;48.554;8.820;2023-12-14T05:49:35;5.50;;;5.00;;
8716;SDS011;4395;48.554;8.820;2023-12-14T05:51:39;6.18;;;5.15;;
8716;SDS011;4395;48.554;8.820;2023-12-14T05:53:41;6.47;;;5.85;;
8716;SDS011;4395;48.554;8.820;2023-12-14T05:55:44;3.88;;;3.25;;
8716;SDS011;4395;48.554;8.820;2023-12-14T05:57:49;4.57;;;3.60;;
8716;SDS011;4395;48.554;8.820;2023-12-14T05:59:52;3.72;;;3.42;;
8716;SDS011;4395;48.554;8.820;2023-12-14T06:01:56;4.10;;;3.47;;
8716;SDS011;4395;48.554;8.820;2023-12-14T06:03:58;3.63;;;3.33;;
8716;SDS011;4395;48.554;8.820;2023-12-14T06:06:01;3.45;;;3.15;;
8716;SDS011;4395;48.554;8.820;2023-12-14T06:08:04;3.75;;;3.40;;
8716;SDS011;4395;48.554;8.820;2023-12-14T06:10:07;4.00;;;3.70;;
8716;SDS011;4395;48.554;8.820;2023-12-14T06:12:10;4.20;;;3.80;;
8716;SDS011;4395;48.554;8.820;2023-12-14T06:14:14;5.07;;;4.45;;
8716;SDS011;4395;48.554;8.820;2023-12-14T06:16:17;4.68;;;4.28;;
8716;SDS011;4395;48.554;8.820;2023-12-14T06:18:20;5.00;;;4.60;;
8716;SDS011;4395;48.554;8.820;2023-12-14T06:20:23;5.45;;;4.95;;
8716;SDS011;4395;48.554;8.820;2023-12-14T06:22:26;6.57;;;5.60;;
8716;SDS011;4395;48.554;8.820;2023-12-14T06:24:28;5.55;;;5.05;;
8716;SDS011;4395;48.554;8.820;2023-12-14T06:26:31;5.25;;;4.85;;
8716;SDS011;4395;48.554;8.820;2023-12-14T06:28:34;5.90;;;5.30;;
8716;SDS011;4395;48.554;8.820;2023-12-14T06:30:38;6.13;;;5.53;;
8716;SDS011;4395;48.554;8.820;2023-12-14T06:32:41;7.03;;;6.32;;
8716;SDS011;4395;48.554;8.820;2023-12-14T06:34:44;6.38;;;5.78;;
8716;SDS011;4395;48.554;8.820;2023-12-14T06:36:47;7.30;;;6.60;;
8716;SDS011;4395;48.554;8.820;2023-12-14T06:38:50;8.35;;;7.47;;
8716;SDS011;4395;48.554;8.820;2023-12-14T06:40:52;9.27;;;7.85;;
8716;SDS011;4395;48.554;8.820;2023-12-14T06:42:54;8.45;;;6.53;;
8716;SDS011;4395;48.554;8.820;2023-12-14T06:44:57;17.60;;;11.68;;
8716;SDS011;4395;48.554;8.820;2023-12-14T06:47:00;25.23;;;16.98;;
8716;SDS011;4395;48.554;8.820;2023-12-14T06:49:03;18.20;;;12.20;;
8716;SDS011;4395;48.554;8.820;2023-12-14T06:51:06;11.27;;;7.90;;
8716;SDS011;4395;48.554;8.820;2023-12-14T06:53:08;7.85;;;5.80;;
8716;SDS011;4395;48.554;8.820;2023-12-14T06:55:11;44.35;;;24.00;;
8716;SDS011;4395;48.554;8.820;2023-12-14T06:57:16;46.08;;;26.45;;
8716;SDS011;4395;48.554;8.820;2023-12-14T06:59:17;33.90;;;19.35;;
8716;SDS011;4395;48.554;8.820;2023-12-14T07:01:20;16.65;;;12.02;;
8716;SDS011;4395;48.554;8.820;2023-12-14T07:03:24;7.38;;;5.75;;
8716;SDS011;4395;48.554;8.820;2023-12-14T07:05:27;4.95;;;4.45;;
8716;SDS011;4395;48.554;8.820;2023-12-14T07:07:29;3.60;;;3.15;;
8716;SDS011;4395;48.554;8.820;2023-12-14T07:09:32;3.70;;;3.40;;
8716;SDS011;4395;48.554;8.820;2023-12-14T07:11:34;3.60;;;3.30;;
8716;SDS011;4395;48.554;8.820;2023-12-14T07:13:37;2.63;;;2.42;;
8716;SDS011;4395;48.554;8.820;2023-12-14T07:15:40;2.63;;;2.42;;
8716;SDS011;4395;48.554;8.820;2023-12-14T07:17:43;1.90;;;1.80;;
8716;SDS011;4395;48.554;8.820;2023-12-14T07:19:47;2.83;;;2.20;;
8716;SDS011;4395;48.554;8.820;2023-12-14T07:21:50;2.38;;;2.17;;
8716;SDS011;4395;48.554;8.820;2023-12-14T07:23:53;3.67;;;2.33;;
8716;SDS011;4395;48.554;8.820;2023-12-14T07:25:56;2.10;;;1.90;;
8716;SDS011;4395;48.554;8.820;2023-12-14T07:28:03;2.78;;;2.58;;
8716;SDS011;4395;48.554;8.820;2023-12-14T07:30:06;3.58;;;3.28;;
8716;SDS011;4395;48.554;8.820;2023-12-14T07:32:10;5.50;;;5.00;;
8716;SDS011;4395;48.554;8.820;2023-12-14T07:34:13;5.07;;;4.63;;
8716;SDS011;4395;48.554;8.820;2023-12-14T07:36:17;3.55;;;3.25;;
8716;SDS011;4395;48.554;8.820;2023-12-14T07:38:20;2.67;;;2.47;;
8716;SDS011;4395;48.554;8.820;2023-12-14T07:40:23;2.83;;;2.63;;
8716;SDS011;4395;48.554;8.820;2023-12-14T07:42:26;3.08;;;2.60;;
8716;SDS011;4395;48.554;8.820;2023-12-14T07:44:28;3.58;;;2.60;;
8716;SDS011;4395;48.554;8.820;2023-12-14T07:46:31;2.63;;;2.42;;
8716;SDS011;4395;48.554;8.820;2023-12-14T07:48:34;2.47;;;2.28;;
8716;SDS011;4395;48.554;8.820;2023-12-14T07:50:37;2.10;;;2.00;;
8716;SDS011;4395;48.554;8.820;2023-12-14T07:52:41;1.80;;;1.70;;
8716;SDS011;4395;48.554;8.820;2023-12-14T07:54:44;3.05;;;2.30;;
8716;SDS011;4395;48.554;8.820;2023-12-14T07:56:47;3.53;;;2.58;;
8716;SDS011;4395;48.554;8.820;2023-12-14T07:58:50;2.33;;;2.05;;
8716;SDS011;4395;48.554;8.820;2023-12-14T08:00:53;2.33;;;1.92;;
8716;SDS011;4395;48.554;8.820;2023-12-14T08:02:56;1.70;;;1.60;;
8716;SDS011;4395;48.554;8.820;2023-12-14T08:04:58;1.98;;;1.80;;
8716;SDS011;4395;48.554;8.820;2023-12-14T08:07:01;1.90;;;1.80;;
8716;SDS011;4395;48.554;8.820;2023-12-14T08:09:06;2.22;;;2.03;;
8716;SDS011;4395;48.554;8.820;2023-12-14T08:11:09;2.38;;;1.48;;
8716;SDS011;4395;48.554;8.820;2023-12-14T08:13:12;1.65;;;1.52;;
8716;SDS011;4395;48.554;8.820;2023-12-14T08:15:15;2.10;;;1.67;;
8716;SDS011;4395;48.554;8.820;2023-12-14T08:17:18;2.17;;;1.73;;
8716;SDS011;4395;48.554;8.820;2023-12-14T08:19:20;2.88;;;2.20;;
8716;SDS011;4395;48.554;8.820;2023-12-14T08:21:23;2.47;;;1.98;;
8716;SDS011;4395;48.554;8.820;2023-12-14T08:23:26;1.83;;;1.60;;
8716;SDS011;4395;48.554;8.820;2023-12-14T08:25:30;1.42;;;1.33;;
8716;SDS011;4395;48.554;8.820;2023-12-14T08:27:33;1.33;;;1.10;;
8716;SDS011;4395;48.554;8.820;2023-12-14T08:29:35;7.88;;;4.20;;
8716;SDS011;4395;48.554;8.820;2023-12-14T08:31:37;1.60;;;1.50;;
8716;SDS011;4395;48.554;8.820;2023-12-14T08:33:40;1.25;;;1.08;;
8716;SDS011;4395;48.554;8.820;2023-12-14T08:35:47;1.75;;;1.50;;
8716;SDS011;4395;48.554;8.820;2023-12-14T08:37:50;1.27;;;1.17;;
8716;SDS011;4395;48.554;8.820;2023-12-14T08:39:53;1.00;;;0.90;;
8716;SDS011;4395;48.554;8.820;2023-12-14T08:41:58;2.22;;;1.58;;
8716;SDS011;4395;48.554;8.820;2023-12-14T08:44:00;1.27;;;1.17;;
8716;SDS011;4395;48.554;8.820;2023-12-14T08:46:04;1.40;;;1.10;;
8716;SDS011;4395;48.554;8.820;2023-12-14T08:48:06;1.58;;;1.40;;
8716;SDS011;4395;48.554;8.820;2023-12-14T08:50:09;1.20;;;1.10;;
8716;SDS011;4395;48.554;8.820;2023-12-14T08:52:12;1.20;;;1.10;;
8716;SDS011;4395;48.554;8.820;2023-12-14T08:54:16;2.80;;;1.95;;
8716;SDS011;4395;48.554;8.820;2023-12-14T08:56:18;14.20;;;7.05;;
8716;SDS011;4395;48.554;8.820;2023-12-14T08:58:23;7.72;;;4.80;;
8716;SDS011;4395;48.554;8.820;2023-12-14T09:00:26;4.55;;;3.00;;
8716;SDS011;4395;48.554;8.820;2023-12-14T09:02:28;7.50;;;5.55;;
8716;SDS011;4395;48.554;8.820;2023-12-14T09:04:31;5.75;;;3.15;;
8716;SDS011;4395;48.554;8.820;2023-12-14T09:06:37;6.63;;;3.40;;
8716;SDS011;4395;48.554;8.820;2023-12-14T09:08:43;11.40;;;9.32;;
8716;SDS011;4395;48.554;8.820;2023-12-14T09:10:45;8.80;;;5.60;;
8716;SDS011;4395;48.554;8.820;2023-12-14T09:12:48;10.40;;;4.88;;
8716;SDS011;4395;48.554;8.820;2023-12-14T09:14:52;3.90;;;3.20;;
8716;SDS011;4395;48.554;8.820;2023-12-14T09:16:55;2.90;;;2.60;;
8716;SDS011;4395;48.554;8.820;2023-12-14T09:18:58;1.98;;;1.13;;
8716;SDS011;4395;48.554;8.820;2023-12-14T09:21:01;0.80;;;0.80;;
8716;SDS011;4395;48.554;8.820;2023-12-14T09:23:03;1.15;;;1.05;;
8716;SDS011;4395;48.554;8.820;2023-12-14T09:25:06;1.88;;;1.70;;
8716;SDS011;4395;48.554;8.820;2023-12-14T09:27:11;1.70;;;1.38;;
8716;SDS011;4395;48.554;8.820;2023-12-14T09:29:12;1.98;;;1.75;;
8716;SDS011;4395;48.554;8.820;2023-12-14T09:31:18;1.98;;;1.20;;
8716;SDS011;4395;48.554;8.820;2023-12-14T09:33:20;2.78;;;1.98;;
8716;SDS011;4395;48.554;8.820;2023-12-14T09:35:24;2.53;;;2.00;;
8716;SDS011;4395;48.554;8.820;2023-12-14T09:37:27;2.75;;;2.30;;
8716;SDS011;4395;48.554;8.820;2023-12-14T09:39:30;2.13;;;1.95;;
8716;SDS011;4395;48.554;8.820;2023-12-14T09:41:33;1.75;;;1.58;;
8716;SDS011;4395;48.554;8.820;2023-12-14T09:43:35;1.63;;;1.52;;
8716;SDS011;4395;48.554;8.820;2023-12-14T09:45:38;3.58;;;1.52;;
8716;SDS011;4395;48.554;8.820;2023-12-14T09:47:47;2.95;;;1.50;;
8716;SDS011;4395;48.554;8.820;2023-12-14T09:49:49;2.40;;;1.52;;
8716;SDS011;4395;48.554;8.820;2023-12-14T09:51:54;2.08;;;1.05;;
8716;SDS011;4395;48.554;8.820;2023-12-14T09:53:56;1.23;;;1.13;;
8716;SDS011;4395;48.554;8.820;2023-12-14T09:55:59;1.60;;;1.40;;
8716;SDS011;4395;48.554;8.820;2023-12-14T09:58:02;1.45;;;1.35;;
8716;SDS011;4395;48.554;8.820;2023-12-14T10:00:06;1.40;;;1.30;;
8716;SDS011;4395;48.554;8.820;2023-12-14T10:02:12;1.20;;;1.13;;
8716;SDS011;4395;48.554;8.820;2023-12-14T10:04:17;3.08;;;2.35;;
8716;SDS011;4395;48.554;8.820;2023-12-14T10:06:21;0.98;;;0.90;;
8716;SDS011;4395;48.554;8.820;2023-12-14T10:08:25;2.05;;;1.20;;
8716;SDS011;4395;48.554;8.820;2023-12-14T10:10:28;1.50;;;1.25;;
8716;SDS011;4395;48.554;8.820;2023-12-14T10:12:32;0.98;;;0.98;;
8716;SDS011;4395;48.554;8.820;2023-12-14T10:14:59;1.40;;;1.30;;
8716;SDS011;4395;48.554;8.820;2023-12-14T10:17:13;1.42;;;1.33;;
8716;SDS011;4395;48.554;8.820;2023-12-14T10:19:22;1.73;;;1.00;;
8716;SDS011;4395;48.554;8.820;2023-12-14T10:21:26;1.23;;;1.08;;
8716;SDS011;4395;48.554;8.820;2023-12-14T10:23:28;2.97;;;1.40;;
8716;SDS011;4395;48.554;8.820;2023-12-14T10:25:32;1.95;;;1.48;;
8716;SDS011;4395;48.554;8.820;2023-12-14T10:27:34;1.58;;;1.45;;
8716;SDS011;4395;48.554;8.820;2023-12-14T10:29:39;1.25;;;1.17;;
8716;SDS011;4395;48.554;8.820;2023-12-14T10:31:42;1.70;;;1.60;;
8716;SDS011;4395;48.554;8.820;2023-12-14T10:33:46;1.67;;;1.55;;
8716;SDS011;4395;48.554;8.820;2023-12-14T10:35:51;4.38;;;1.85;;
8716;SDS011;4395;48.554;8.820;2023-12-14T10:37:53;1.90;;;1.80;;
8716;SDS011;4395;48.554;8.820;2023-12-14T10:39:58;2.08;;;1.85;;
8716;SDS011;4395;48.554;8.820;2023-12-14T10:42:03;3.00;;;1.83;;
8716;SDS011;4395;48.554;8.820;2023-12-14T10:44:20;2.38;;;1.90;;
8716;SDS011;4395;48.554;8.820;2023-12-14T10:46:45;1.75;;;1.65;;
8716;SDS011;4395;48.554;8.820;2023-12-14T10:48:51;2.05;;;1.80;;
8716;SDS011;4395;48.554;8.820;2023-12-14T10:50:55;2.30;;;1.95;;
8716;SDS011;4395;48.554;8.820;2023-12-14T10:53:01;2.45;;;1.85;;
8716;SDS011;4395;48.554;8.820;2023-12-14T10:55:06;2.30;;;2.10;;
8716;SDS011;4395;48.554;8.820;2023-12-14T10:57:12;2.35;;;2.05;;
8716;SDS011;4395;48.554;8.820;2023-12-14T10:59:15;3.60;;;1.98;;
8716;SDS011;4395;48.554;8.820;2023-12-14T11:01:19;4.32;;;1.60;;
8716;SDS011;4395;48.554;8.820;2023-12-14T11:03:22;2.35;;;1.80;;
8716;SDS011;4395;48.554;8.820;2023-12-14T11:05:27;3.88;;;1.90;;
8716;SDS011;4395;48.554;8.820;2023-12-14T11:07:46;2.00;;;1.80;;
8716;SDS011;4395;48.554;8.820;2023-12-14T11:09:49;2.10;;;1.75;;
8716;SDS011;4395;48.554;8.820;2023-12-14T11:11:56;2.28;;;1.67;;
8716;SDS011;4395;48.554;8.820;2023-12-14T11:14:01;2.70;;;2.50;;
8716;SDS011;4395;48.554;8.820;2023-12-14T11:16:05;2.55;;;2.35;;
8716;SDS011;4395;48.554;8.820;2023-12-14T11:20:30;1.60;;;1.48;;
8716;SDS011;4395;48.554;8.820;2023-12-14T11:22:33;1.45;;;1.35;;
8716;SDS011;4395;48.554;8.820;2023-12-14T11:24:37;1.85;;;1.75;;
8716;SDS011;4395;48.554;8.820;2023-12-14T11:26:43;1.80;;;1.50;;
8716;SDS011;4395;48.554;8.820;2023-12-14T11:28:47;1.90;;;1.25;;
8716;SDS011;4395;48.554;8.820;2023-12-14T11:30:51;2.50;;;1.60;;
8716;SDS011;4395;48.554;8.820;2023-12-14T11:32:56;3.08;;;1.42;;
8716;SDS011;4395;48.554;8.820;2023-12-14T11:34:59;4.53;;;2.95;;
8716;SDS011;4395;48.554;8.820;2023-12-14T11:37:02;5.20;;;3.85;;
8716;SDS011;4395;48.554;8.820;2023-12-14T11:39:07;3.45;;;2.72;;
8716;SDS011;4395;48.554;8.820;2023-12-14T11:41:12;4.97;;;1.20;;
8716;SDS011;4395;48.554;8.820;2023-12-14T11:43:15;1.63;;;1.52;;
8716;SDS011;4395;48.554;8.820;2023-12-14T11:45:18;1.30;;;0.90;;
8716;SDS011;4395;48.554;8.820;2023-12-14T11:47:21;1.58;;;1.27;;
8716;SDS011;4395;48.554;8.820;2023-12-14T11:49:24;1.25;;;1.10;;
8716;SDS011;4395;48.554;8.820;2023-12-14T11:51:27;1.40;;;1.23;;
8716;SDS011;4395;48.554;8.820;2023-12-14T11:53:31;1.17;;;1.08;;
8716;SDS011;4395;48.554;8.820;2023-12-14T11:55:37;1.05;;;0.93;;
8716;SDS011;4395;48.554;8.820;2023-12-14T11:57:46;1.50;;;1.40;;
8716;SDS011;4395;48.554;8.820;2023-12-14T11:59:50;1.17;;;1.17;;
8716;SDS011;4395;48.554;8.820;2023-12-14T12:01:53;0.95;;;0.95;;
8716;SDS011;4395;48.554;8.820;2023-12-14T12:03:56;1.25;;;1.15;;
8716;SDS011;4395;48.554;8.820;2023-12-14T12:06:19;1.85;;;1.10;;
8716;SDS011;4395;48.554;8.820;2023-12-14T12:08:22;1.42;;;1.40;;
8716;SDS011;4395;48.554;8.820;2023-12-14T12:10:25;2.83;;;1.25;;
8716;SDS011;4395;48.554;8.820;2023-12-14T12:12:28;2.58;;;2.38;;
8716;SDS011;4395;48.554;8.820;2023-12-14T12:14:32;5.18;;;3.72;;
8716;SDS011;4395;48.554;8.820;2023-12-14T12:16:35;7.43;;;5.65;;
8716;SDS011;4395;48.554;8.820;2023-12-14T12:18:38;5.13;;;3.60;;
8716;SDS011;4395;48.554;8.820;2023-12-14T12:20:41;4.20;;;3.75;;
8716;SDS011;4395;48.554;8.820;2023-12-14T12:22:44;5.03;;;4.18;;
8716;SDS011;4395;48.554;8.820;2023-12-14T12:24:46;3.25;;;2.80;;
8716;SDS011;4395;48.554;8.820;2023-12-14T12:26:58;3.00;;;2.70;;
8716;SDS011;4395;48.554;8.820;2023-12-14T12:29:01;2.80;;;1.48;;
8716;SDS011;4395;48.554;8.820;2023-12-14T12:31:06;3.20;;;2.70;;
8716;SDS011;4395;48.554;8.820;2023-12-14T12:33:09;2.35;;;2.10;;
8716;SDS011;4395;48.554;8.820;2023-12-14T12:35:13;7.85;;;5.65;;
8716;SDS011;4395;48.554;8.820;2023-12-14T12:37:15;3.75;;;2.10;;
8716;SDS011;4395;48.554;8.820;2023-12-14T12:39:18;2.67;;;2.30;;
8716;SDS011;4395;48.554;8.820;2023-12-14T12:41:21;1.98;;;1.88;;
8716;SDS011;4395;48.554;8.820;2023-12-14T12:43:23;1.67;;;1.48;;
8716;SDS011;4395;48.554;8.820;2023-12-14T12:45:26;2.33;;;1.48;;
8716;SDS011;4395;48.554;8.820;2023-12-14T12:47:31;1.83;;;1.48;;